Time;durP1;ratioP1;P1;durP2;ratioP2;P2;SDS_P1;SDS_P2;PMS_P1;PMS_P2;Temp;Humidity;BMP_temperature;BMP_pressure;BME280_temperature;BME280_humidity;BME280_pressure;Samples;Min_cycle;Max_cycle;Signal;HPM_P1;HPM_P2
2022/06/05 00:03:48;;;;;;;7.07;3.65;;;17.50;99.90;;;;;;7325035;32;20130;-62
2022/06/05 00:08:17;;;;;;;5.53;3.92;;;17.50;99.90;;;;;;7320232;32;20111;-62
2022/06/05 00:12:28;;;;;;;4.62;3.95;;;17.40;99.90;;;;;;7320719;32;20639;-63
2022/06/05 00:16:29;;;;;;;4.22;3.83;;;17.40;99.90;;;;;;7322663;32;20215;-62
2022/06/05 00:20:32;;;;;;;4.37;3.97;;;17.30;99.90;;;;;;7310885;32;20476;-62
2022/06/05 00:24:34;;;;;;;5.70;4.00;;;17.30;99.90;;;;;;7324647;32;20111;-62
2022/06/05 00:28:53;;;;;;;5.20;4.10;;;17.10;99.90;;;;;;7315895;32;20143;-63
2022/06/05 00:33:20;;;;;;;4.95;4.40;;;17.00;99.90;;;;;;7322002;32;20167;-64
2022/06/05 00:37:45;;;;;;;4.68;4.28;;;16.90;99.90;;;;;;7312295;32;20116;-64
2022/06/05 00:42:04;;;;;;;5.72;3.97;;;16.80;99.90;;;;;;7325678;32;20259;-62
2022/06/05 00:46:06;;;;;;;4.37;3.87;;;16.90;99.90;;;;;;7328351;32;20100;-63
2022/06/05 00:50:11;;;;;;;7.00;4.60;;;16.90;99.90;;;;;;7324522;32;20518;-62
2022/06/05 00:54:13;;;;;;;6.00;4.25;;;16.90;99.90;;;;;;7331797;32;20214;-63
2022/06/05 00:58:17;;;;;;;5.07;4.50;;;16.90;99.90;;;;;;7322899;32;20591;-62
2022/06/05 01:02:19;;;;;;;6.05;4.55;;;16.80;99.90;;;;;;7322823;32;20138;-61
2022/06/05 01:06:20;;;;;;;4.62;4.22;;;16.90;99.90;;;;;;7315398;32;20126;-62
2022/06/05 01:10:37;;;;;;;5.03;4.53;;;17.00;99.90;;;;;;7319438;32;20229;-61
2022/06/05 01:14:56;;;;;;;6.53;4.70;;;17.00;99.90;;;;;;7316784;32;20107;-62
2022/06/05 01:19:11;;;;;;;4.37;3.97;;;17.00;99.90;;;;;;7320982;32;20112;-61
2022/06/05 01:23:22;;;;;;;8.07;4.60;;;17.10;99.90;;;;;;7316240;32;20215;-62
2022/06/05 01:27:27;;;;;;;6.00;4.10;;;17.00;99.90;;;;;;7322574;32;20289;-62
2022/06/05 01:31:49;;;;;;;3.92;3.62;;;17.00;99.90;;;;;;7319540;32;20209;-62
2022/06/05 01:36:17;;;;;;;4.95;4.45;;;16.90;99.90;;;;;;7319832;32;20167;-62
2022/06/05 01:40:24;;;;;;;4.97;4.30;;;16.80;99.90;;;;;;7321108;32;20115;-61
2022/06/05 01:44:34;;;;;;;6.35;4.62;;;16.70;99.90;;;;;;7320268;32;20240;-62
2022/06/05 01:48:42;;;;;;;7.93;4.28;;;16.70;99.90;;;;;;7315560;32;20670;-61
2022/06/05 01:52:59;;;;;;;5.65;4.10;;;16.70;99.90;;;;;;7332107;32;20107;-61
2022/06/05 01:57:05;;;;;;;6.45;4.57;;;16.80;99.90;;;;;;7321420;32;20134;-61
2022/06/05 02:01:12;;;;;;;5.07;4.47;;;16.80;99.90;;;;;;7319369;32;20150;-61
2022/06/05 02:05:17;;;;;;;;;;;16.80;99.90;;;;;;7326431;32;20103;-61
2022/06/05 02:09:41;;;;;;;5.50;4.30;;;16.80;99.90;;;;;;7319471;32;20142;-62
2022/06/05 02:13:43;;;;;;;6.80;4.20;;;16.70;99.90;;;;;;7323546;32;20115;-62
2022/06/05 02:17:45;;;;;;;4.40;3.92;;;16.60;99.90;;;;;;7306297;32;20119;-62
2022/06/05 02:21:47;;;;;;;7.30;4.37;;;16.40;99.90;;;;;;7318948;32;20161;-61
2022/06/05 02:25:49;;;;;;;7.82;4.72;;;16.20;99.90;;;;;;7323701;32;20146;-61
2022/06/05 02:29:52;;;;;;;6.03;4.93;;;15.90;99.90;;;;;;7320622;32;20116;-61
2022/06/05 02:34:00;;;;;;;4.82;4.25;;;15.70;99.90;;;;;;7321697;32;20500;-61
2022/06/05 02:38:12;;;;;;;5.75;4.85;;;15.50;99.90;;;;;;7317424;32;20277;-61
2022/06/05 02:42:19;;;;;;;5.78;5.28;;;15.30;99.90;;;;;;7328240;32;20462;-62
2022/06/05 02:46:29;;;;;;;11.88;5.18;;;15.20;99.90;;;;;;7318240;32;20449;-61
2022/06/05 02:50:43;;;;;;;6.30;5.72;;;15.10;99.90;;;;;;7316854;32;20165;-61
2022/06/05 02:55:07;;;;;;;7.75;5.35;;;15.10;99.90;;;;;;7322708;32;20766;-61
2022/06/05 02:59:09;;;;;;;6.40;5.87;;;15.10;99.90;;;;;;7323104;32;20103;-61
2022/06/05 03:03:29;;;;;;;7.90;6.28;;;15.20;99.90;;;;;;7317419;32;20484;-61
2022/06/05 03:07:31;;;;;;;9.10;5.50;;;15.20;99.90;;;;;;7321459;32;20495;-61
2022/06/05 03:11:32;;;;;;;7.05;6.35;;;15.30;99.90;;;;;;7325227;32;20244;-61
2022/06/05 03:15:34;;;;;;;6.45;5.85;;;15.30;99.90;;;;;;7327353;32;20128;-61
2022/06/05 03:19:36;;;;;;;6.62;5.82;;;15.30;99.90;;;;;;7322179;32;20111;-61
2022/06/05 03:23:38;;;;;;;7.70;6.32;;;15.30;99.90;;;;;;7326406;32;20170;-61
2022/06/05 03:27:40;;;;;;;5.80;5.30;;;15.40;99.90;;;;;;7336731;32;20107;-61
2022/06/05 03:31:42;;;;;;;6.43;5.72;;;15.60;99.90;;;;;;7327949;32;20527;-61
2022/06/05 03:35:45;;;;;;;6.28;5.60;;;15.70;99.90;;;;;;7329827;32;20130;-61
2022/06/05 03:39:47;;;;;;;8.70;5.60;;;15.70;99.90;;;;;;7325640;32;20210;-61
2022/06/05 03:43:49;;;;;;;6.15;5.55;;;15.80;99.90;;;;;;7321018;32;20115;-61
2022/06/05 03:47:51;;;;;;;5.45;4.95;;;15.90;99.90;;;;;;7321019;32;20111;-62
2022/06/05 03:51:53;;;;;;;5.75;5.25;;;16.00;99.90;;;;;;7325480;32;20154;-61
2022/06/05 03:55:55;;;;;;;7.45;5.45;;;16.00;99.90;;;;;;7325446;32;20253;-61
2022/06/05 03:59:57;;;;;;;5.70;5.20;;;16.10;99.90;;;;;;7320279;32;20135;-61
2022/06/05 04:03:59;;;;;;;7.30;5.55;;;16.00;99.90;;;;;;7320468;32;20234;-61
2022/06/05 04:08:01;;;;;;;6.60;5.43;;;16.00;99.90;;;;;;7320761;32;20831;-61
2022/06/05 04:12:03;;;;;;;6.00;5.30;;;16.20;99.90;;;;;;7330496;32;20539;-61
2022/06/05 04:16:16;;;;;;;7.03;5.50;;;16.00;99.90;;;;;;7322365;32;20118;-61
2022/06/05 04:20:18;;;;;;;6.60;5.78;;;16.00;99.90;;;;;;7316282;32;20549;-61
2022/06/05 04:24:20;;;;;;;8.27;6.05;;;15.90;99.90;;;;;;7320845;32;20126;-62
2022/06/05 04:28:21;;;;;;;7.15;5.60;;;15.90;99.90;;;;;;7321870;32;20107;-61
2022/06/05 04:32:23;;;;;;;7.22;5.75;;;15.90;99.90;;;;;;7316336;32;20214;-61
2022/06/05 04:36:25;;;;;;;8.43;6.07;;;16.00;99.90;;;;;;7320230;32;20133;-61
2022/06/05 04:40:27;;;;;;;7.65;6.37;;;15.90;99.90;;;;;;7323055;32;20822;-61
2022/06/05 04:44:29;;;;;;;6.22;5.62;;;16.00;99.90;;;;;;7328581;32;20112;-61
2022/06/05 04:48:31;;;;;;;6.53;5.75;;;16.00;99.90;;;;;;7325770;32;20122;-61
2022/06/05 04:52:33;;;;;;;6.95;6.15;;;16.10;99.90;;;;;;7323977;32;20282;-61
2022/06/05 04:56:35;;;;;;;7.25;5.80;;;16.20;99.90;;;;;;7318443;32;20126;-61
2022/06/05 05:00:38;;;;;;;6.25;5.45;;;16.30;99.90;;;;;;7322451;32;20230;-62
2022/06/05 05:04:40;;;;;;;7.03;5.50;;;16.40;99.90;;;;;;7318523;32;20557;-61
2022/06/05 05:08:42;;;;;;;5.82;5.32;;;16.60;99.90;;;;;;7321970;32;20522;-61
2022/06/05 05:12:43;;;;;;;6.30;5.70;;;16.70;99.90;;;;;;7325789;32;20207;-62
2022/06/05 05:16:45;;;;;;;5.97;5.47;;;16.80;99.90;;;;;;7319383;32;20123;-61
2022/06/05 05:20:47;;;;;;;5.28;4.72;;;16.90;99.90;;;;;;7316384;32;20352;-61
2022/06/05 05:24:49;;;;;;;5.75;5.25;;;16.90;99.90;;;;;;7316994;32;20219;-61
2022/06/05 05:28:52;;;;;;;8.20;5.20;;;17.00;99.90;;;;;;7330571;32;20525;-61
2022/06/05 05:32:53;;;;;;;5.68;5.18;;;17.00;99.90;;;;;;7314897;32;20206;-62
2022/06/05 05:36:55;;;;;;;8.20;5.25;;;17.10;99.90;;;;;;7324188;32;20216;-63
2022/06/05 05:45:17;;;;;;;7.65;5.37;;;17.20;99.90;;;;;;7317393;32;20542;-60
2022/06/05 05:49:19;;;;;;;6.85;5.40;;;17.30;99.90;;;;;;7319565;32;20253;-61
2022/06/05 05:53:20;;;;;;;5.57;4.97;;;17.40;99.90;;;;;;7319571;32;20220;-61
2022/06/05 05:57:23;;;;;;;6.53;4.93;;;17.40;99.90;;;;;;7323429;32;20150;-61
2022/06/05 06:01:25;;;;;;;7.20;5.55;;;17.40;99.90;;;;;;7316483;32;20111;-60
2022/06/05 06:05:26;;;;;;;7.03;4.78;;;17.50;99.90;;;;;;7318888;32;20453;-61
2022/06/05 06:09:28;;;;;;;5.82;4.80;;;17.50;99.90;;;;;;7311116;32;20357;-61
2022/06/05 06:13:30;;;;;;;6.20;5.18;;;17.50;99.90;;;;;;7321783;32;20111;-60
2022/06/05 06:17:31;;;;;;;5.40;4.90;;;17.50;99.90;;;;;;7328808;32;20138;-61
2022/06/05 06:21:33;;;;;;;5.25;4.75;;;17.50;99.90;;;;;;7318750;32;20213;-61
2022/06/05 06:25:43;;;;;;;5.25;4.68;;;17.50;99.90;;;;;;7319776;32;20202;-61
2022/06/05 06:29:45;;;;;;;6.28;5.60;;;17.60;99.90;;;;;;7322656;32;20527;-62
2022/06/05 06:33:48;;;;;;;6.20;5.00;;;17.70;99.90;;;;;;7325746;32;20115;-61
2022/06/05 06:37:50;;;;;;;7.40;5.10;;;17.80;99.90;;;;;;7317251;32;20178;-62
2022/06/05 06:41:51;;;;;;;6.43;5.15;;;17.90;99.90;;;;;;7326766;32;20532;-62
2022/06/05 06:45:53;;;;;;;6.15;5.05;;;18.00;99.90;;;;;;7326203;32;20194;-62
2022/06/05 06:49:55;;;;;;;6.72;5.35;;;18.20;99.90;;;;;;7319827;32;20646;-62
2022/06/05 06:53:57;;;;;;;6.53;5.50;;;18.30;99.90;;;;;;7321310;32;20607;-61
2022/06/05 06:57:58;;;;;;;7.40;6.70;;;18.40;99.90;;;;;;7323461;32;20445;-65
2022/06/05 07:02:00;;;;;;;6.30;5.50;;;18.50;99.90;;;;;;7326605;32;20139;-65
2022/06/05 07:06:05;;;;;;;5.60;5.07;;;18.70;99.90;;;;;;7325097;32;20719;-66
2022/06/05 07:10:07;;;;;;;5.62;5.12;;;18.80;99.90;;;;;;7328156;32;20146;-65
2022/06/05 07:14:09;;;;;;;10.63;9.57;;;18.80;99.90;;;;;;7333944;32;20194;-65
2022/06/05 07:18:12;;;;;;;5.22;4.72;;;18.70;99.90;;;;;;7326507;32;20107;-68
2022/06/05 07:22:14;;;;;;;6.12;5.43;;;18.80;99.90;;;;;;7332304;32;20444;-67
2022/06/05 07:26:18;;;;;;;6.62;5.90;;;18.70;99.90;;;;;;7323532;32;20137;-67
2022/06/05 07:30:20;;;;;;;5.93;5.20;;;18.70;99.90;;;;;;7323747;32;20138;-62
2022/06/05 07:34:21;;;;;;;5.82;5.05;;;18.70;99.90;;;;;;7333292;32;20108;-63
2022/06/05 07:38:23;;;;;;;5.60;5.10;;;18.90;99.90;;;;;;7318777;32;20293;-65
2022/06/05 07:42:25;;;;;;;8.57;5.45;;;18.90;99.90;;;;;;7327100;32;20521;-66
2022/06/05 07:46:27;;;;;;;7.47;5.40;;;19.10;99.90;;;;;;7321106;32;20154;-68
2022/06/05 07:50:29;;;;;;;7.35;5.00;;;19.20;99.90;;;;;;7318585;32;20288;-65
2022/06/05 07:54:31;;;;;;;6.47;4.90;;;19.40;99.90;;;;;;7320143;32;20297;-64
2022/06/05 07:58:33;;;;;;;6.05;5.37;;;19.60;99.90;;;;;;7320718;32;20606;-65
2022/06/05 08:02:36;;;;;;;5.97;5.35;;;19.60;99.90;;;;;;7324198;32;20133;-66
2022/06/05 08:06:39;;;;;;;6.30;5.30;;;19.80;99.90;;;;;;7329618;32;20621;-66
2022/06/05 08:10:41;;;;;;;5.70;5.20;;;19.90;99.90;;;;;;7326960;32;20143;-66
2022/06/05 08:14:44;;;;;;;9.20;6.10;;;19.90;99.90;;;;;;7336484;32;20122;-66
2022/06/05 08:18:46;;;;;;;6.55;5.15;;;20.00;99.90;;;;;;7325905;32;20142;-67
2022/06/05 08:22:48;;;;;;;6.95;5.07;;;20.00;99.90;;;;;;7328319;32;20115;-67
2022/06/05 08:26:51;;;;;;;5.93;5.40;;;20.30;99.90;;;;;;7331077;32;20132;-65
2022/06/05 08:30:53;;;;;;;5.97;5.00;;;20.50;99.90;;;;;;7330836;32;20142;-66
2022/06/05 08:34:55;;;;;;;5.72;5.20;;;21.10;99.90;;;;;;7332248;32;20177;-67
2022/06/05 08:44:04;;;;;;;5.97;5.00;;;22.50;99.90;;;;;;7332829;32;20142;-66
2022/06/05 08:48:12;;;;;;;4.80;4.40;;;22.90;99.90;;;;;;7325786;32;20651;-66
2022/06/05 08:52:27;;;;;;;6.05;4.78;;;23.00;99.90;;;;;;7333280;32;20146;-66
2022/06/05 08:56:41;;;;;;;5.12;4.50;;;22.90;99.90;;;;;;7320636;32;20115;-66
2022/06/05 09:00:50;;;;;;;5.47;4.47;;;22.80;99.90;;;;;;7315640;32;20139;-67
2022/06/05 09:05:13;;;;;;;4.68;4.28;;;22.70;99.90;;;;;;7316944;32;20269;-63
2022/06/05 09:09:20;;;;;;;8.93;5.97;;;22.70;99.90;;;;;;7324117;32;20104;-72
2022/06/05 09:13:37;;;;;;;5.75;4.95;;;22.50;99.90;;;;;;7322657;32;20138;-70
2022/06/05 09:17:49;;;;;;;5.28;4.53;;;22.40;99.90;;;;;;7315311;32;20116;-70
2022/06/05 09:22:15;;;;;;;5.15;4.55;;;22.30;99.90;;;;;;7318952;32;20161;-71
2022/06/05 09:26:26;;;;;;;4.87;4.35;;;22.00;99.90;;;;;;7307723;32;20111;-70
2022/06/05 09:30:56;;;;;;;6.12;5.10;;;21.80;99.90;;;;;;7324154;32;20111;-69
2022/06/05 09:35:39;;;;;;;6.22;4.87;;;21.50;99.90;;;;;;7312251;32;20190;-59
2022/06/05 09:39:46;;;;;;;4.85;4.35;;;21.50;99.90;;;;;;7313303;32;20226;-70
2022/06/05 09:44:22;;;;;;;5.65;5.12;;;21.30;99.90;;;;;;7321542;32;20139;-72
2022/06/05 09:48:40;;;;;;;7.43;5.35;;;21.00;99.90;;;;;;7321710;32;20216;-67
2022/06/05 09:52:41;;;;;;;5.53;5.10;;;21.00;99.90;;;;;;7315216;32;20567;-64
2022/06/05 10:01:28;;;;;;;7.22;6.40;;;20.60;99.90;;;;;;7277323;32;20165;-64
2022/06/05 10:05:34;;;;;;;8.57;6.57;;;20.40;99.90;;;;;;7322653;32;20641;-65
2022/06/05 10:09:44;;;;;;;9.90;6.93;;;20.30;99.90;;;;;;7320568;32;20135;-64
2022/06/05 10:13:51;;;;;;;9.35;8.02;;;20.00;99.90;;;;;;7317629;32;20143;-66
2022/06/05 10:18:01;;;;;;;12.10;8.57;;;19.90;99.90;;;;;;7311899;32;20488;-64
2022/06/05 10:22:20;;;;;;;10.65;9.45;;;19.90;99.90;;;;;;7319816;32;20183;-63
2022/06/05 10:26:28;;;;;;;10.90;9.85;;;19.80;99.90;;;;;;7318948;32;20139;-63
2022/06/05 10:30:35;;;;;;;10.73;9.73;;;19.90;99.90;;;;;;7318140;32;20443;-64
2022/06/05 10:35:00;;;;;;;10.05;8.85;;;19.90;99.90;;;;;;7318884;32;20716;-62
2022/06/05 10:39:04;;;;;;;10.02;9.02;;;19.90;99.90;;;;;;7317901;32;20186;-65
2022/06/05 10:43:22;;;;;;;10.25;9.25;;;19.90;99.90;;;;;;7317339;32;20130;-63
2022/06/05 10:47:44;;;;;;;10.85;9.75;;;19.90;99.90;;;;;;7316295;32;20182;-64
2022/06/05 10:51:49;;;;;;;10.88;9.80;;;19.70;99.90;;;;;;7320067;32;20119;-63
2022/06/05 10:56:04;;;;;;;10.63;9.70;;;19.70;99.90;;;;;;7318555;32;20107;-65
2022/06/05 11:00:23;;;;;;;11.32;10.07;;;19.60;99.90;;;;;;7316808;32;20199;-66
2022/06/05 11:04:38;;;;;;;11.23;9.93;;;19.60;99.90;;;;;;7316584;32;20142;-66
2022/06/05 11:08:51;;;;;;;11.85;10.63;;;19.50;99.90;;;;;;7315129;32;20519;-66
2022/06/05 11:17:41;;;;;;;11.30;10.40;;;19.40;99.90;;;;;;7315530;32;20162;-66
2022/06/05 11:21:46;;;;;;;11.10;10.00;;;19.20;99.90;;;;;;7319956;32;20498;-66
2022/06/05 11:26:04;;;;;;;11.23;10.32;;;19.20;99.90;;;;;;7323268;32;20134;-67
2022/06/05 11:30:20;;;;;;;12.13;11.12;;;19.10;99.90;;;;;;7321797;32;20479;-65
2022/06/05 11:34:44;;;;;;;12.50;11.27;;;19.10;99.90;;;;;;7321808;32;20100;-66
2022/06/05 11:38:59;;;;;;;11.98;10.88;;;19.20;99.90;;;;;;7326290;32;20144;-66
2022/06/05 11:43:20;;;;;;;12.90;11.80;;;19.30;99.90;;;;;;7326345;32;20179;-65
2022/06/05 11:47:50;;;;;;;11.85;10.65;;;19.70;99.90;;;;;;7323118;32;20135;-67
2022/06/05 11:52:05;;;;;;;10.85;9.75;;;19.90;99.90;;;;;;7326429;32;20251;-68
2022/06/05 11:56:25;;;;;;;12.10;10.95;;;19.90;99.90;;;;;;7323522;32;20146;-59
2022/06/05 12:00:47;;;;;;;12.95;10.93;;;19.80;99.90;;;;;;7323180;32;20198;-60
2022/06/05 12:04:53;;;;;;;11.27;10.27;;;19.80;99.90;;;;;;7323470;32;20115;-62
2022/06/05 12:09:05;;;;;;;10.93;9.93;;;20.10;99.90;;;;;;7327211;32;20565;-62
2022/06/05 12:13:30;;;;;;;9.65;8.75;;;20.30;99.90;;;;;;7327259;32;20108;-60
2022/06/05 12:17:41;;;;;;;9.20;8.25;;;21.00;99.90;;;;;;7324424;32;20115;-61
2022/06/05 12:22:14;;;;;;;9.82;8.85;;;20.70;99.90;;;;;;7326867;32;20126;-67
2022/06/05 12:26:33;;;;;;;9.10;8.27;;;20.90;99.90;;;;;;7314467;32;20198;-66
2022/06/05 12:30:48;;;;;;;8.20;7.60;;;21.40;99.90;;;;;;7323483;32;20230;-66
2022/06/05 12:35:28;;;;;;;8.30;7.65;;;21.00;99.90;;;;;;7323666;32;20130;-66
2022/06/05 12:39:41;;;;;;;8.45;7.62;;;20.60;99.90;;;;;;7255393;32;22360;-66
2022/06/05 12:43:57;;;;;;;9.40;8.50;;;20.50;99.90;;;;;;7317481;32;20440;-69
2022/06/05 12:48:14;;;;;;;8.65;7.80;;;20.60;99.90;;;;;;7321720;32;20112;-67
2022/06/05 12:52:24;;;;;;;;;;;20.50;99.90;;;;;;7320441;32;20602;-67
2022/06/05 12:56:43;;;;;;;9.25;8.50;;;20.20;99.90;;;;;;7318500;32;20008;-67
2022/06/05 13:01:02;;;;;;;8.93;8.07;;;20.20;99.90;;;;;;7318378;32;20628;-67
2022/06/05 13:05:30;;;;;;;9.05;8.18;;;20.40;99.90;;;;;;7332503;32;20145;-69
2022/06/05 13:09:47;;;;;;;6.90;6.30;;;20.70;99.90;;;;;;7322500;32;20242;-69
2022/06/05 13:14:08;;;;;;;7.10;6.12;;;20.60;99.90;;;;;;7317400;32;20194;-67
2022/06/05 13:18:33;;;;;;;6.28;5.78;;;20.90;99.90;;;;;;7318916;32;20126;-70
2022/06/05 13:22:46;;;;;;;5.95;5.35;;;20.90;99.90;;;;;;7319182;32;20220;-67
2022/06/05 13:26:54;;;;;;;6.30;5.70;;;21.10;99.90;;;;;;7312789;32;20225;-67
2022/06/05 13:31:34;;;;;;;6.50;5.82;;;21.30;99.90;;;;;;7320999;32;20213;-66
2022/06/05 13:36:02;;;;;;;6.22;5.72;;;21.30;99.90;;;;;;7290344;32;20919;-66
2022/06/05 13:40:33;;;;;;;6.72;6.12;;;21.00;99.90;;;;;;7315848;32;20238;-66
2022/06/05 13:44:36;;;;;;;6.25;5.75;;;21.00;99.90;;;;;;7331678;32;20401;-64
2022/06/05 13:48:46;;;;;;;7.50;6.70;;;21.10;99.90;;;;;;7316666;32;20112;-65
2022/06/05 13:52:52;;;;;;;5.50;5.10;;;21.10;99.90;;;;;;7316059;32;20225;-67
2022/06/05 13:57:00;;;;;;;5.65;5.15;;;21.20;99.90;;;;;;7318014;32;20103;-66
2022/06/05 14:01:23;;;;;;;7.12;5.12;;;21.30;99.90;;;;;;7318918;32;20123;-67
2022/06/05 14:05:57;;;;;;;5.75;5.25;;;21.30;99.90;;;;;;7320923;32;20112;-65
2022/06/05 14:10:16;;;;;;;5.72;5.22;;;21.20;99.90;;;;;;7307483;32;20137;-67
2022/06/05 14:14:17;;;;;;;6.20;5.65;;;21.00;99.90;;;;;;7314264;32;20418;-66
2022/06/05 14:18:31;;;;;;;6.18;5.68;;;20.90;99.90;;;;;;7318506;32;20115;-66
2022/06/05 14:22:41;;;;;;;6.43;5.80;;;20.80;99.90;;;;;;7319967;32;20504;-67
2022/06/05 14:26:53;;;;;;;5.70;5.30;;;20.80;99.90;;;;;;7323316;32;20130;-63
2022/06/05 14:30:58;;;;;;;6.35;5.75;;;20.70;99.90;;;;;;7315578;32;20217;-62
2022/06/05 14:35:16;;;;;;;7.20;6.60;;;20.70;99.90;;;;;;7326976;32;20106;-66
2022/06/05 14:39:28;;;;;;;8.48;6.75;;;20.50;99.90;;;;;;7318310;32;20145;-68
2022/06/05 14:44:16;;;;;;;14.75;11.27;;;20.50;99.90;;;;;;7323861;32;20108;-68
2022/06/05 14:48:26;;;;;;;6.65;6.03;;;20.50;99.90;;;;;;7315710;32;20161;-67
2022/06/05 14:52:41;;;;;;;6.07;5.57;;;20.40;99.90;;;;;;7308992;32;20119;-67
2022/06/05 15:01:41;;;;;;;6.90;6.18;;;20.10;99.90;;;;;;7305337;32;20164;-67
2022/06/05 15:05:49;;;;;;;7.95;7.07;;;20.00;99.90;;;;;;7318432;32;20126;-66
2022/06/05 15:09:55;;;;;;;7.78;7.03;;;19.80;99.90;;;;;;7330505;32;20115;-68
2022/06/05 15:14:00;;;;;;;8.60;7.80;;;19.70;99.90;;;;;;7324020;32;20206;-69
2022/06/05 15:18:09;;;;;;;9.25;8.45;;;19.50;99.90;;;;;;7326163;32;20112;-67
2022/06/05 15:22:50;;;;;;;10.85;9.77;;;19.30;99.90;;;;;;7324668;32;20103;-66
2022/06/05 15:27:05;;;;;;;11.38;10.27;;;19.10;99.90;;;;;;7326594;32;20744;-66
2022/06/05 15:31:28;;;;;;;13.13;11.93;;;18.80;99.90;;;;;;7322435;32;21295;-65
2022/06/05 15:35:42;;;;;;;14.45;13.02;;;18.40;99.90;;;;;;7323515;32;20159;-65
2022/06/05 15:40:02;;;;;;;16.75;15.18;;;18.20;99.90;;;;;;7315495;32;20480;-66
2022/06/05 15:44:22;;;;;;;14.18;12.98;;;18.10;99.90;;;;;;7323173;32;20172;-67
2022/06/05 15:48:37;;;;;;;15.50;13.90;;;18.30;99.90;;;;;;7325492;32;20130;-66
2022/06/05 15:52:58;;;;;;;13.32;12.13;;;18.40;99.90;;;;;;7324414;32;20107;-65
2022/06/05 16:01:57;;;;;;;12.40;11.30;;;18.80;99.90;;;;;;7323598;32;20554;-64
2022/06/05 16:05:59;;;;;;;10.35;9.43;;;19.00;99.90;;;;;;7322944;32;20140;-59
2022/06/05 16:10:11;;;;;;;9.75;8.95;;;19.10;99.90;;;;;;7325935;32;20530;-62
2022/06/05 16:14:47;;;;;;;5.57;4.62;;;19.20;99.90;;;;;;7311154;32;20146;-62
2022/06/05 16:19:03;;;;;;;3.87;3.00;;;19.10;99.90;;;;;;7318388;32;20111;-64
2022/06/05 16:23:27;;;;;;;5.32;4.82;;;19.00;99.90;;;;;;7324231;32;20203;-64
2022/06/05 16:28:05;;;;;;;7.03;5.05;;;19.00;99.90;;;;;;7321997;32;20104;-63
2022/06/05 16:32:32;;;;;;;1.98;1.67;;;19.00;99.90;;;;;;7330756;32;20123;-63
2022/06/05 16:41:08;;;;;;;1.20;1.00;;;18.80;99.90;;;;;;7329681;32;20181;-67
2022/06/05 16:45:10;;;;;;;1.20;1.08;;;19.00;99.90;;;;;;7323125;32;20207;-64
2022/06/05 16:49:26;;;;;;;1.70;1.40;;;18.70;99.90;;;;;;7321429;32;20167;-65
2022/06/05 16:53:47;;;;;;;6.00;2.58;;;18.50;99.90;;;;;;7326600;32;20108;-63
2022/06/05 16:57:52;;;;;;;2.42;2.22;;;18.40;99.90;;;;;;7320099;32;20136;-65
2022/06/05 17:02:14;;;;;;;2.95;2.67;;;18.20;99.90;;;;;;7315600;32;21936;-66
2022/06/05 17:06:31;;;;;;;4.55;3.03;;;18.10;99.90;;;;;;7318622;32;20351;-66
2022/06/05 17:10:48;;;;;;;4.07;3.25;;;18.00;99.90;;;;;;7318826;32;20564;-67
2022/06/05 17:14:50;;;;;;;5.50;4.05;;;17.90;99.90;;;;;;7317824;32;20132;-65
2022/06/05 17:19:20;;;;;;;4.37;3.97;;;17.80;99.90;;;;;;7314372;32;20187;-66
2022/06/05 17:23:27;;;;;;;4.90;4.50;;;17.80;99.90;;;;;;7323911;32;20106;-67
2022/06/05 17:27:34;;;;;;;5.73;4.60;;;17.70;99.90;;;;;;7323901;32;20134;-68
2022/06/05 17:31:44;;;;;;;6.32;5.82;;;17.70;99.90;;;;;;7322935;32;20607;-66
2022/06/05 17:36:04;;;;;;;7.22;6.60;;;17.60;99.90;;;;;;7320321;32;20198;-65
2022/06/05 17:40:34;;;;;;;7.68;6.95;;;17.60;99.90;;;;;;7322049;32;20107;-65
2022/06/05 17:44:48;;;;;;;7.00;6.40;;;17.50;99.90;;;;;;7335319;32;20217;-66
2022/06/05 17:49:21;;;;;;;9.70;8.80;;;17.50;99.90;;;;;;7319608;32;20110;-66
2022/06/05 17:53:28;;;;;;;11.20;10.20;;;17.50;99.90;;;;;;7325877;32;20186;-66
2022/06/05 17:57:32;;;;;;;;;;;17.40;99.90;;;;;;7314478;32;20920;-67
2022/06/05 18:01:46;;;;;;;13.85;12.65;;;17.50;99.90;;;;;;7309462;32;20571;-67
2022/06/05 18:05:56;;;;;;;15.77;14.38;;;17.50;99.90;;;;;;7313008;32;20518;-69
2022/06/05 18:09:58;;;;;;;16.40;14.80;;;17.40;99.90;;;;;;7311271;32;20135;-67
2022/06/05 18:14:00;;;;;;;17.70;15.95;;;17.40;99.90;;;;;;7323951;32;21200;-64
2022/06/05 18:18:08;;;;;;;17.60;15.88;;;17.40;99.90;;;;;;7313606;32;20924;-68
2022/06/05 18:22:47;;;;;;;18.62;16.83;;;17.40;99.90;;;;;;7320785;32;20817;-68
2022/06/05 18:27:25;;;;;;;18.02;16.23;;;17.30;99.90;;;;;;7318065;32;20125;-67
2022/06/05 18:31:33;;;;;;;18.05;16.12;;;17.30;99.90;;;;;;7318187;32;20304;-66
2022/06/05 18:40:09;;;;;;;16.42;14.90;;;17.40;99.90;;;;;;7316537;32;20572;-67
2022/06/05 18:44:17;;;;;;;15.80;14.30;;;17.30;99.90;;;;;;7318475;32;20158;-67
2022/06/05 18:48:29;;;;;;;18.40;16.55;;;17.40;99.90;;;;;;7320332;32;20130;-67
2022/06/05 18:52:31;;;;;;;19.23;17.37;;;17.40;99.90;;;;;;7323120;32;20170;-68
2022/06/05 18:56:37;;;;;;;20.92;18.90;;;17.30;99.90;;;;;;7321920;32;20553;-68
2022/06/05 19:00:39;;;;;;;23.85;21.40;;;17.20;99.90;;;;;;7313199;32;20111;-68
2022/06/05 19:04:42;;;;;;;23.67;21.25;;;17.10;99.90;;;;;;7323800;32;20108;-68
2022/06/05 19:08:44;;;;;;;22.50;20.20;;;17.00;99.90;;;;;;7326589;32;20111;-67
2022/06/05 19:12:52;;;;;;;21.58;19.27;;;17.00;99.90;;;;;;7326361;32;20220;-69
2022/06/05 19:17:00;;;;;;;20.48;18.30;;;16.90;99.90;;;;;;7323958;32;20158;-69
2022/06/05 19:21:17;;;;;;;20.15;17.95;;;16.80;99.90;;;;;;7316467;32;20194;-68
2022/06/05 19:25:23;;;;;;;23.83;21.42;;;16.80;99.90;;;;;;7330475;32;20142;-68
2022/06/05 19:29:31;;;;;;;26.92;24.23;;;16.80;99.90;;;;;;7319534;32;20187;-70
2022/06/05 19:33:37;;;;;;;27.42;24.73;;;16.80;99.90;;;;;;7324581;32;20194;-69
2022/06/05 19:38:10;;;;;;;29.58;26.48;;;16.80;99.90;;;;;;7319450;32;20134;-68
2022/06/05 19:42:21;;;;;;;27.95;24.48;;;16.80;99.90;;;;;;7321275;32;20099;-69
2022/06/05 19:46:39;;;;;;;28.90;25.90;;;16.70;99.90;;;;;;7322524;32;20115;-68
2022/06/05 19:50:54;;;;;;;27.08;24.27;;;16.60;99.90;;;;;;7318398;32;20133;-67
2022/06/05 19:54:58;;;;;;;24.10;21.55;;;16.60;99.90;;;;;;7326255;32;20497;-66
2022/06/05 19:59:14;;;;;;;21.52;19.37;;;16.60;99.90;;;;;;7324624;32;20530;-69
2022/06/05 20:03:17;;;;;;;20.60;18.67;;;16.60;99.90;;;;;;7324161;32;20288;-68
2022/06/05 20:07:19;;;;;;;20.37;18.37;;;16.60;99.90;;;;;;7319228;32;20134;-68
2022/06/05 20:11:29;;;;;;;21.00;18.87;;;16.70;99.90;;;;;;7324998;32;20476;-69
2022/06/05 20:15:35;;;;;;;20.20;18.10;;;16.60;99.90;;;;;;7321924;32;20317;-67
2022/06/05 20:19:52;;;;;;;21.05;18.80;;;16.60;99.90;;;;;;7321359;32;20578;-63
2022/06/05 20:23:59;;;;;;;20.60;18.08;;;16.60;99.90;;;;;;7328482;32;20112;-65
2022/06/05 20:28:16;;;;;;;;;;;16.60;99.90;;;;;;7318399;32;20112;-65
2022/06/05 20:32:23;;;;;;;20.00;17.42;;;16.60;99.90;;;;;;7319473;32;20113;-66
2022/06/05 20:36:25;;;;;;;22.05;18.95;;;16.60;99.90;;;;;;7328852;32;20103;-66
2022/06/05 20:40:34;;;;;;;20.10;18.10;;;16.60;99.90;;;;;;7315996;32;20810;-66
2022/06/05 20:45:00;;;;;;;21.62;19.40;;;16.60;99.90;;;;;;7321988;32;20161;-65
2022/06/05 20:49:11;;;;;;;20.90;18.77;;;16.60;99.90;;;;;;7323108;32;20660;-65
2022/06/05 20:53:15;;;;;;;21.17;19.08;;;16.60;99.90;;;;;;7326737;32;20129;-66
2022/06/05 20:57:40;;;;;;;22.15;19.90;;;16.60;99.90;;;;;;7318156;32;20234;-64
2022/06/05 21:01:53;;;;;;;23.73;21.23;;;16.60;99.90;;;;;;7323682;32;20123;-64
2022/06/05 21:10:15;;;;;;;25.77;23.12;;;16.60;99.90;;;;;;7320497;32;20408;-64
2022/06/05 21:18:42;;;;;;;26.15;23.20;;;16.70;99.90;;;;;;7322713;32;20582;-64
2022/06/05 21:22:47;;;;;;;28.08;25.08;;;16.60;99.90;;;;;;7321584;32;20119;-63
2022/06/05 21:26:55;;;;;;;26.25;23.52;;;16.60;99.90;;;;;;7317277;32;20159;-62
2022/06/05 21:30:58;;;;;;;28.62;23.38;;;16.60;99.90;;;;;;7317106;32;20199;-63
2022/06/05 21:35:09;;;;;;;28.65;25.62;;;16.60;99.90;;;;;;7333259;32;20103;-61
2022/06/05 21:39:16;;;;;;;27.62;24.73;;;16.50;99.90;;;;;;7323388;32;20163;-61
2022/06/05 21:43:25;;;;;;;30.03;25.77;;;16.50;99.90;;;;;;7321922;32;20210;-62
2022/06/05 21:47:28;;;;;;;27.48;24.67;;;16.40;99.90;;;;;;7321202;32;20331;-63
2022/06/05 21:51:33;;;;;;;30.02;25.40;;;16.40;99.90;;;;;;7323870;32;20546;-62
2022/06/05 21:55:37;;;;;;;29.58;26.23;;;16.50;99.90;;;;;;7317632;32;20550;-62
2022/06/05 21:59:39;;;;;;;27.77;24.63;;;16.60;99.90;;;;;;7325947;32;20220;-63
2022/06/05 22:03:41;;;;;;;28.08;25.10;;;16.50;99.90;;;;;;7316769;32;20230;-63
2022/06/05 22:07:44;;;;;;;27.10;24.02;;;16.60;99.90;;;;;;7317639;32;20190;-64
2022/06/05 22:11:46;;;;;;;28.15;25.12;;;16.50;99.90;;;;;;7311757;32;20191;-62
2022/06/05 22:15:47;;;;;;;30.12;26.48;;;16.60;99.90;;;;;;7329243;32;20298;-63
2022/06/05 22:19:49;;;;;;;30.02;26.35;;;16.60;99.90;;;;;;7323174;32;20150;-63
2022/06/05 22:23:51;;;;;;;32.83;25.65;;;16.60;99.90;;;;;;7326663;32;20466;-63